LLIB/RPN METAR and TAF weather

Enter ICAO airport designator
Station Type Date Time Source
LLIB METAR 2021/05/12 04:50 UTC NOAA

LLIB 120450Z AUTO VRB03KT CAVOK 21/// Q////


Station Type Date Time Source
LLIB Decoded METAR 2021/05/12 04:50 UTC NOAA

Galilee / Pina, Israel (LLIB) 32-58-48N 035-34-12E
May 12, 2021 - 12:50 AM EDT / 2021.05.12 0450 UTC
Wind: Variable at 3 MPH (3 KT):0
Visibility: greater than 7 mile(s):0
Temperature: 69 F (21 C)
ob: LLIB 120450Z AUTO VRB03KT CAVOK 21/// Q////
cycle: 5

Station Type Date Time Source
LLIB TAF 2021/05/12 06:09 UTC NOAA

TAF LLIB 120504Z 1206/1306 VRB04KT CAVOK
FM120700 17006KT CAVOK
TEMPO 1207/1211 VRB04KT
BECMG 1211/1213 33013KT
BECMG 1219/1221 VRB03KT TX31/1212Z TN13/1303Z

Example: see airport list